sensor_id;sensor_type;location;lat;lon;timestamp;P1;durP1;ratioP1;P2;durP2;ratioP2
26269;SDS011;15937;50.612;6.656;2022-07-24T00:03:43;7.57;;;4.80;;
26269;SDS011;15937;50.612;6.656;2022-07-24T00:07:45;10.40;;;4.93;;
26269;SDS011;15937;50.612;6.656;2022-07-24T00:11:47;12.55;;;5.43;;
26269;SDS011;15937;50.612;6.656;2022-07-24T00:15:49;9.05;;;4.53;;
26269;SDS011;15937;50.612;6.656;2022-07-24T00:19:51;9.38;;;4.57;;
26269;SDS011;15937;50.612;6.656;2022-07-24T00:23:52;8.77;;;4.68;;
26269;SDS011;15937;50.612;6.656;2022-07-24T00:27:54;14.32;;;5.03;;
26269;SDS011;15937;50.612;6.656;2022-07-24T00:31:56;8.45;;;4.68;;
26269;SDS011;15937;50.612;6.656;2022-07-24T00:35:58;6.47;;;4.50;;
26269;SDS011;15937;50.612;6.656;2022-07-24T00:40:01;9.77;;;4.28;;
26269;SDS011;15937;50.612;6.656;2022-07-24T00:44:11;11.77;;;4.95;;
26269;SDS011;15937;50.612;6.656;2022-07-24T00:48:14;9.30;;;4.93;;
26269;SDS011;15937;50.612;6.656;2022-07-24T00:52:15;10.57;;;5.00;;
26269;SDS011;15937;50.612;6.656;2022-07-24T00:56:18;12.13;;;5.30;;
26269;SDS011;15937;50.612;6.656;2022-07-24T01:00:21;8.00;;;4.72;;
26269;SDS011;15937;50.612;6.656;2022-07-24T01:04:23;17.52;;;5.13;;
26269;SDS011;15937;50.612;6.656;2022-07-24T01:08:25;10.17;;;5.13;;
26269;SDS011;15937;50.612;6.656;2022-07-24T01:12:29;6.93;;;5.38;;
26269;SDS011;15937;50.612;6.656;2022-07-24T01:16:33;11.38;;;4.70;;
26269;SDS011;15937;50.612;6.656;2022-07-24T01:20:37;9.05;;;5.30;;
26269;SDS011;15937;50.612;6.656;2022-07-24T01:24:39;11.55;;;5.65;;
26269;SDS011;15937;50.612;6.656;2022-07-24T01:28:41;10.57;;;5.40;;
26269;SDS011;15937;50.612;6.656;2022-07-24T01:32:43;9.50;;;5.00;;
26269;SDS011;15937;50.612;6.656;2022-07-24T01:36:48;14.35;;;5.75;;
26269;SDS011;15937;50.612;6.656;2022-07-24T01:40:49;12.68;;;5.75;;
26269;SDS011;15937;50.612;6.656;2022-07-24T01:44:51;9.73;;;5.30;;
26269;SDS011;15937;50.612;6.656;2022-07-24T01:48:53;12.03;;;5.03;;
26269;SDS011;15937;50.612;6.656;2022-07-24T01:52:55;10.75;;;5.95;;
26269;SDS011;15937;50.612;6.656;2022-07-24T01:56:57;7.57;;;5.28;;
26269;SDS011;15937;50.612;6.656;2022-07-24T02:00:59;9.02;;;5.90;;
26269;SDS011;15937;50.612;6.656;2022-07-24T02:05:05;8.20;;;5.40;;
26269;SDS011;15937;50.612;6.656;2022-07-24T02:09:07;7.65;;;4.82;;
26269;SDS011;15937;50.612;6.656;2022-07-24T02:13:09;12.02;;;5.10;;
26269;SDS011;15937;50.612;6.656;2022-07-24T02:17:12;11.00;;;5.55;;
26269;SDS011;15937;50.612;6.656;2022-07-24T02:21:13;7.75;;;5.60;;
26269;SDS011;15937;50.612;6.656;2022-07-24T02:25:15;11.85;;;6.25;;
26269;SDS011;15937;50.612;6.656;2022-07-24T02:29:17;8.83;;;5.47;;
26269;SDS011;15937;50.612;6.656;2022-07-24T02:33:19;11.00;;;5.90;;
26269;SDS011;15937;50.612;6.656;2022-07-24T02:37:21;12.53;;;5.70;;
26269;SDS011;15937;50.612;6.656;2022-07-24T02:41:23;10.45;;;5.65;;
26269;SDS011;15937;50.612;6.656;2022-07-24T02:45:24;12.30;;;5.75;;
26269;SDS011;15937;50.612;6.656;2022-07-24T02:49:26;6.67;;;4.73;;
26269;SDS011;15937;50.612;6.656;2022-07-24T02:53:28;8.32;;;5.55;;
26269;SDS011;15937;50.612;6.656;2022-07-24T02:57:30;11.13;;;5.35;;
26269;SDS011;15937;50.612;6.656;2022-07-24T03:01:32;8.18;;;5.35;;
26269;SDS011;15937;50.612;6.656;2022-07-24T03:05:34;9.80;;;5.37;;
26269;SDS011;15937;50.612;6.656;2022-07-24T03:09:36;10.85;;;5.00;;
26269;SDS011;15937;50.612;6.656;2022-07-24T03:13:38;12.02;;;5.57;;
26269;SDS011;15937;50.612;6.656;2022-07-24T03:17:47;12.20;;;6.23;;
26269;SDS011;15937;50.612;6.656;2022-07-24T03:21:57;10.13;;;5.40;;
26269;SDS011;15937;50.612;6.656;2022-07-24T03:25:59;10.15;;;5.60;;
26269;SDS011;15937;50.612;6.656;2022-07-24T03:30:02;8.07;;;5.33;;
26269;SDS011;15937;50.612;6.656;2022-07-24T03:34:07;9.18;;;5.30;;
26269;SDS011;15937;50.612;6.656;2022-07-24T03:38:09;8.27;;;5.30;;
26269;SDS011;15937;50.612;6.656;2022-07-24T03:42:11;10.07;;;5.70;;
26269;SDS011;15937;50.612;6.656;2022-07-24T03:46:13;8.27;;;5.93;;
26269;SDS011;15937;50.612;6.656;2022-07-24T03:50:15;11.98;;;5.13;;
26269;SDS011;15937;50.612;6.656;2022-07-24T03:54:22;8.25;;;4.75;;
26269;SDS011;15937;50.612;6.656;2022-07-24T03:58:24;11.52;;;5.93;;
26269;SDS011;15937;50.612;6.656;2022-07-24T04:02:26;11.93;;;5.30;;
26269;SDS011;15937;50.612;6.656;2022-07-24T04:06:28;15.45;;;5.68;;
26269;SDS011;15937;50.612;6.656;2022-07-24T04:10:29;10.20;;;5.28;;
26269;SDS011;15937;50.612;6.656;2022-07-24T04:14:31;8.30;;;5.38;;
26269;SDS011;15937;50.612;6.656;2022-07-24T04:18:33;6.97;;;4.90;;
26269;SDS011;15937;50.612;6.656;2022-07-24T04:22:35;9.52;;;5.80;;
26269;SDS011;15937;50.612;6.656;2022-07-24T04:26:40;12.25;;;5.28;;
26269;SDS011;15937;50.612;6.656;2022-07-24T04:30:41;10.67;;;5.37;;
26269;SDS011;15937;50.612;6.656;2022-07-24T04:34:43;7.63;;;5.30;;
26269;SDS011;15937;50.612;6.656;2022-07-24T04:38:45;7.65;;;5.70;;
26269;SDS011;15937;50.612;6.656;2022-07-24T04:42:47;15.75;;;5.18;;
26269;SDS011;15937;50.612;6.656;2022-07-24T04:46:48;8.20;;;5.47;;
26269;SDS011;15937;50.612;6.656;2022-07-24T04:50:50;5.30;;;4.28;;
26269;SDS011;15937;50.612;6.656;2022-07-24T04:54:53;10.55;;;4.85;;
26269;SDS011;15937;50.612;6.656;2022-07-24T04:58:54;18.02;;;5.15;;
26269;SDS011;15937;50.612;6.656;2022-07-24T05:02:56;7.90;;;4.90;;
26269;SDS011;15937;50.612;6.656;2022-07-24T05:06:58;10.38;;;5.25;;
26269;SDS011;15937;50.612;6.656;2022-07-24T05:11:00;7.95;;;4.82;;
26269;SDS011;15937;50.612;6.656;2022-07-24T05:15:04;9.82;;;5.47;;
26269;SDS011;15937;50.612;6.656;2022-07-24T05:19:07;12.35;;;4.82;;
26269;SDS011;15937;50.612;6.656;2022-07-24T05:23:09;9.35;;;4.97;;
26269;SDS011;15937;50.612;6.656;2022-07-24T05:27:11;6.18;;;4.80;;
26269;SDS011;15937;50.612;6.656;2022-07-24T05:31:13;10.10;;;4.73;;
26269;SDS011;15937;50.612;6.656;2022-07-24T05:35:14;17.58;;;8.80;;
26269;SDS011;15937;50.612;6.656;2022-07-24T05:39:28;13.55;;;9.00;;
26269;SDS011;15937;50.612;6.656;2022-07-24T05:43:30;11.47;;;7.10;;
26269;SDS011;15937;50.612;6.656;2022-07-24T05:47:36;12.40;;;6.77;;
26269;SDS011;15937;50.612;6.656;2022-07-24T05:51:39;8.95;;;5.45;;
26269;SDS011;15937;50.612;6.656;2022-07-24T05:55:40;10.52;;;6.03;;
26269;SDS011;15937;50.612;6.656;2022-07-24T05:59:42;15.43;;;9.07;;
26269;SDS011;15937;50.612;6.656;2022-07-24T06:03:46;12.55;;;8.35;;
26269;SDS011;15937;50.612;6.656;2022-07-24T06:07:48;14.10;;;5.43;;
26269;SDS011;15937;50.612;6.656;2022-07-24T06:11:50;9.63;;;5.55;;
26269;SDS011;15937;50.612;6.656;2022-07-24T06:15:52;11.00;;;4.60;;
26269;SDS011;15937;50.612;6.656;2022-07-24T06:19:54;9.70;;;5.00;;
26269;SDS011;15937;50.612;6.656;2022-07-24T06:23:56;6.80;;;4.87;;
26269;SDS011;15937;50.612;6.656;2022-07-24T06:27:58;5.43;;;4.27;;
26269;SDS011;15937;50.612;6.656;2022-07-24T06:32:00;6.97;;;4.77;;
26269;SDS011;15937;50.612;6.656;2022-07-24T06:36:02;4.67;;;3.97;;
26269;SDS011;15937;50.612;6.656;2022-07-24T06:40:04;6.72;;;4.88;;
26269;SDS011;15937;50.612;6.656;2022-07-24T06:44:06;11.95;;;4.57;;
26269;SDS011;15937;50.612;6.656;2022-07-24T06:48:08;8.38;;;4.47;;
26269;SDS011;15937;50.612;6.656;2022-07-24T06:52:10;8.38;;;4.97;;
26269;SDS011;15937;50.612;6.656;2022-07-24T06:56:12;7.07;;;3.97;;
26269;SDS011;15937;50.612;6.656;2022-07-24T07:00:14;9.00;;;4.20;;
26269;SDS011;15937;50.612;6.656;2022-07-24T07:04:16;9.98;;;4.70;;
26269;SDS011;15937;50.612;6.656;2022-07-24T07:08:18;7.03;;;4.45;;
26269;SDS011;15937;50.612;6.656;2022-07-24T07:12:20;11.53;;;4.40;;
26269;SDS011;15937;50.612;6.656;2022-07-24T07:16:22;9.05;;;3.67;;
26269;SDS011;15937;50.612;6.656;2022-07-24T07:20:24;4.53;;;3.72;;
26269;SDS011;15937;50.612;6.656;2022-07-24T07:24:26;8.03;;;4.20;;
26269;SDS011;15937;50.612;6.656;2022-07-24T07:28:27;9.95;;;4.10;;
26269;SDS011;15937;50.612;6.656;2022-07-24T07:32:29;5.80;;;4.15;;
26269;SDS011;15937;50.612;6.656;2022-07-24T07:40:34;7.82;;;4.47;;
26269;SDS011;15937;50.612;6.656;2022-07-24T07:44:36;9.15;;;5.05;;
26269;SDS011;15937;50.612;6.656;2022-07-24T07:48:40;8.50;;;4.28;;
26269;SDS011;15937;50.612;6.656;2022-07-24T07:52:44;10.60;;;4.75;;
26269;SDS011;15937;50.612;6.656;2022-07-24T07:56:45;7.05;;;4.47;;
26269;SDS011;15937;50.612;6.656;2022-07-24T08:00:48;7.80;;;4.38;;
26269;SDS011;15937;50.612;6.656;2022-07-24T08:04:50;5.75;;;4.05;;
26269;SDS011;15937;50.612;6.656;2022-07-24T08:08:52;10.60;;;4.43;;
26269;SDS011;15937;50.612;6.656;2022-07-24T08:12:54;15.57;;;4.90;;
26269;SDS011;15937;50.612;6.656;2022-07-24T08:16:59;10.60;;;4.32;;
26269;SDS011;15937;50.612;6.656;2022-07-24T08:21:01;6.57;;;4.32;;
26269;SDS011;15937;50.612;6.656;2022-07-24T08:25:02;8.18;;;4.18;;
26269;SDS011;15937;50.612;6.656;2022-07-24T08:29:06;7.18;;;3.75;;
26269;SDS011;15937;50.612;6.656;2022-07-24T08:33:09;7.50;;;4.93;;
26269;SDS011;15937;50.612;6.656;2022-07-24T08:37:11;10.00;;;4.15;;
26269;SDS011;15937;50.612;6.656;2022-07-24T08:41:14;8.38;;;4.28;;
26269;SDS011;15937;50.612;6.656;2022-07-24T08:45:16;6.75;;;3.65;;
26269;SDS011;15937;50.612;6.656;2022-07-24T08:49:18;10.43;;;4.28;;
26269;SDS011;15937;50.612;6.656;2022-07-24T08:53:22;10.23;;;3.58;;
26269;SDS011;15937;50.612;6.656;2022-07-24T08:57:24;7.80;;;3.50;;
26269;SDS011;15937;50.612;6.656;2022-07-24T09:01:26;10.60;;;4.65;;
26269;SDS011;15937;50.612;6.656;2022-07-24T09:05:28;5.38;;;3.92;;
26269;SDS011;15937;50.612;6.656;2022-07-24T09:09:32;8.55;;;4.90;;
26269;SDS011;15937;50.612;6.656;2022-07-24T09:13:35;5.55;;;3.72;;
26269;SDS011;15937;50.612;6.656;2022-07-24T09:17:57;9.90;;;4.22;;
26269;SDS011;15937;50.612;6.656;2022-07-24T09:22:00;6.63;;;3.90;;
26269;SDS011;15937;50.612;6.656;2022-07-24T09:26:02;6.15;;;4.10;;
26269;SDS011;15937;50.612;6.656;2022-07-24T09:30:06;7.57;;;3.78;;
26269;SDS011;15937;50.612;6.656;2022-07-24T09:34:15;10.48;;;3.80;;
26269;SDS011;15937;50.612;6.656;2022-07-24T09:42:28;8.63;;;4.18;;
26269;SDS011;15937;50.612;6.656;2022-07-24T09:46:31;7.82;;;3.53;;
26269;SDS011;15937;50.612;6.656;2022-07-24T09:50:33;10.18;;;4.13;;
26269;SDS011;15937;50.612;6.656;2022-07-24T09:58:51;6.10;;;3.50;;
26269;SDS011;15937;50.612;6.656;2022-07-24T10:02:54;3.65;;;3.20;;
26269;SDS011;15937;50.612;6.656;2022-07-24T10:07:01;7.32;;;3.53;;
26269;SDS011;15937;50.612;6.656;2022-07-24T10:11:09;9.45;;;4.05;;
26269;SDS011;15937;50.612;6.656;2022-07-24T10:15:12;5.68;;;3.72;;
26269;SDS011;15937;50.612;6.656;2022-07-24T10:19:14;5.70;;;4.00;;
26269;SDS011;15937;50.612;6.656;2022-07-24T10:23:21;5.88;;;3.72;;
26269;SDS011;15937;50.612;6.656;2022-07-24T10:31:34;5.20;;;3.60;;
26269;SDS011;15937;50.612;6.656;2022-07-24T10:35:44;6.38;;;3.47;;
26269;SDS011;15937;50.612;6.656;2022-07-24T10:44:27;8.02;;;3.63;;
26269;SDS011;15937;50.612;6.656;2022-07-24T10:48:30;5.53;;;3.22;;
26269;SDS011;15937;50.612;6.656;2022-07-24T10:52:54;5.53;;;3.28;;
26269;SDS011;15937;50.612;6.656;2022-07-24T10:57:17;6.38;;;3.30;;
26269;SDS011;15937;50.612;6.656;2022-07-24T11:06:01;4.53;;;3.00;;
26269;SDS011;15937;50.612;6.656;2022-07-24T11:10:07;4.88;;;3.40;;
26269;SDS011;15937;50.612;6.656;2022-07-24T11:22:16;4.60;;;3.03;;
26269;SDS011;15937;50.612;6.656;2022-07-24T11:30:32;6.40;;;3.85;;
26269;SDS011;15937;50.612;6.656;2022-07-24T11:34:35;5.55;;;3.70;;
26269;SDS011;15937;50.612;6.656;2022-07-24T11:38:37;7.30;;;3.30;;
26269;SDS011;15937;50.612;6.656;2022-07-24T11:42:40;6.32;;;3.17;;
26269;SDS011;15937;50.612;6.656;2022-07-24T11:46:47;5.07;;;3.22;;
26269;SDS011;15937;50.612;6.656;2022-07-24T11:50:49;4.30;;;3.42;;
26269;SDS011;15937;50.612;6.656;2022-07-24T11:58:54;6.28;;;3.00;;
26269;SDS011;15937;50.612;6.656;2022-07-24T12:07:00;6.22;;;2.67;;
26269;SDS011;15937;50.612;6.656;2022-07-24T12:11:02;4.88;;;3.05;;
26269;SDS011;15937;50.612;6.656;2022-07-24T12:15:10;6.50;;;3.40;;
26269;SDS011;15937;50.612;6.656;2022-07-24T12:19:19;4.35;;;2.88;;
26269;SDS011;15937;50.612;6.656;2022-07-24T12:23:23;5.43;;;2.78;;
26269;SDS011;15937;50.612;6.656;2022-07-24T12:27:32;3.20;;;2.10;;
26269;SDS011;15937;50.612;6.656;2022-07-24T12:31:36;3.58;;;2.63;;
26269;SDS011;15937;50.612;6.656;2022-07-24T12:35:58;4.63;;;3.00;;
26269;SDS011;15937;50.612;6.656;2022-07-24T12:40:02;4.82;;;2.83;;
26269;SDS011;15937;50.612;6.656;2022-07-24T12:44:04;5.43;;;3.08;;
26269;SDS011;15937;50.612;6.656;2022-07-24T12:52:21;5.65;;;2.90;;
26269;SDS011;15937;50.612;6.656;2022-07-24T12:56:32;5.10;;;2.38;;
26269;SDS011;15937;50.612;6.656;2022-07-24T13:00:37;5.35;;;2.78;;
26269;SDS011;15937;50.612;6.656;2022-07-24T13:08:51;6.20;;;2.90;;
26269;SDS011;15937;50.612;6.656;2022-07-24T13:17:00;7.63;;;4.15;;
26269;SDS011;15937;50.612;6.656;2022-07-24T13:21:09;3.90;;;2.80;;
26269;SDS011;15937;50.612;6.656;2022-07-24T13:25:11;5.35;;;3.30;;
26269;SDS011;15937;50.612;6.656;2022-07-24T13:29:13;7.80;;;3.15;;
26269;SDS011;15937;50.612;6.656;2022-07-24T13:33:16;6.43;;;2.80;;
26269;SDS011;15937;50.612;6.656;2022-07-24T13:41:21;8.80;;;3.65;;
26269;SDS011;15937;50.612;6.656;2022-07-24T13:45:22;4.30;;;2.63;;
26269;SDS011;15937;50.612;6.656;2022-07-24T13:49:24;4.50;;;3.17;;
26269;SDS011;15937;50.612;6.656;2022-07-24T13:53:26;8.10;;;2.90;;
26269;SDS011;15937;50.612;6.656;2022-07-24T14:01:30;3.78;;;2.65;;
26269;SDS011;15937;50.612;6.656;2022-07-24T14:05:35;5.20;;;3.63;;
26269;SDS011;15937;50.612;6.656;2022-07-24T14:09:38;5.60;;;3.60;;
26269;SDS011;15937;50.612;6.656;2022-07-24T14:13:41;4.53;;;3.30;;
26269;SDS011;15937;50.612;6.656;2022-07-24T14:17:43;6.55;;;2.80;;
26269;SDS011;15937;50.612;6.656;2022-07-24T14:21:45;6.35;;;2.90;;
26269;SDS011;15937;50.612;6.656;2022-07-24T14:25:50;4.70;;;3.33;;
26269;SDS011;15937;50.612;6.656;2022-07-24T14:29:51;7.45;;;4.10;;
26269;SDS011;15937;50.612;6.656;2022-07-24T14:33:53;4.68;;;2.95;;
26269;SDS011;15937;50.612;6.656;2022-07-24T14:37:55;7.82;;;3.20;;
26269;SDS011;15937;50.612;6.656;2022-07-24T14:41:57;4.65;;;3.03;;
26269;SDS011;15937;50.612;6.656;2022-07-24T14:46:02;4.55;;;2.75;;
26269;SDS011;15937;50.612;6.656;2022-07-24T14:50:07;6.18;;;3.08;;
26269;SDS011;15937;50.612;6.656;2022-07-24T14:54:11;6.95;;;3.15;;
26269;SDS011;15937;50.612;6.656;2022-07-24T14:58:13;6.85;;;4.40;;
26269;SDS011;15937;50.612;6.656;2022-07-24T15:02:15;5.18;;;2.85;;
26269;SDS011;15937;50.612;6.656;2022-07-24T15:06:17;6.25;;;4.43;;
26269;SDS011;15937;50.612;6.656;2022-07-24T15:10:19;6.85;;;3.83;;
26269;SDS011;15937;50.612;6.656;2022-07-24T15:14:23;5.97;;;4.45;;
26269;SDS011;15937;50.612;6.656;2022-07-24T15:18:25;6.70;;;4.72;;
26269;SDS011;15937;50.612;6.656;2022-07-24T15:22:30;4.93;;;2.67;;
26269;SDS011;15937;50.612;6.656;2022-07-24T15:26:32;6.95;;;3.25;;
26269;SDS011;15937;50.612;6.656;2022-07-24T15:30:34;3.40;;;3.10;;
26269;SDS011;15937;50.612;6.656;2022-07-24T15:34:38;3.90;;;3.17;;
26269;SDS011;15937;50.612;6.656;2022-07-24T15:38:40;4.82;;;3.13;;
26269;SDS011;15937;50.612;6.656;2022-07-24T15:42:42;7.43;;;4.50;;
26269;SDS011;15937;50.612;6.656;2022-07-24T15:46:44;4.65;;;3.10;;
26269;SDS011;15937;50.612;6.656;2022-07-24T15:50:50;7.35;;;3.40;;
26269;SDS011;15937;50.612;6.656;2022-07-24T15:54:56;6.60;;;3.17;;
26269;SDS011;15937;50.612;6.656;2022-07-24T15:58:58;6.22;;;3.85;;
26269;SDS011;15937;50.612;6.656;2022-07-24T16:03:00;5.28;;;3.28;;
26269;SDS011;15937;50.612;6.656;2022-07-24T16:07:03;5.82;;;3.55;;
26269;SDS011;15937;50.612;6.656;2022-07-24T16:11:05;11.68;;;5.22;;
26269;SDS011;15937;50.612;6.656;2022-07-24T16:15:07;9.65;;;6.15;;
26269;SDS011;15937;50.612;6.656;2022-07-24T16:19:09;4.43;;;3.60;;
26269;SDS011;15937;50.612;6.656;2022-07-24T16:23:13;7.10;;;3.53;;
26269;SDS011;15937;50.612;6.656;2022-07-24T16:27:15;5.88;;;3.53;;
26269;SDS011;15937;50.612;6.656;2022-07-24T16:31:17;3.85;;;2.65;;
26269;SDS011;15937;50.612;6.656;2022-07-24T16:35:18;6.70;;;4.72;;
26269;SDS011;15937;50.612;6.656;2022-07-24T16:39:20;6.47;;;3.45;;
26269;SDS011;15937;50.612;6.656;2022-07-24T16:43:42;14.88;;;8.95;;
26269;SDS011;15937;50.612;6.656;2022-07-24T16:47:44;6.20;;;4.28;;
26269;SDS011;15937;50.612;6.656;2022-07-24T16:51:46;4.07;;;3.10;;
26269;SDS011;15937;50.612;6.656;2022-07-24T16:55:47;6.18;;;3.30;;
26269;SDS011;15937;50.612;6.656;2022-07-24T16:59:49;7.22;;;4.80;;
26269;SDS011;15937;50.612;6.656;2022-07-24T17:03:51;5.15;;;3.30;;
26269;SDS011;15937;50.612;6.656;2022-07-24T17:07:53;3.95;;;2.85;;
26269;SDS011;15937;50.612;6.656;2022-07-24T17:11:55;11.30;;;7.03;;
26269;SDS011;15937;50.612;6.656;2022-07-24T17:15:58;4.40;;;3.00;;
26269;SDS011;15937;50.612;6.656;2022-07-24T17:20:04;6.53;;;4.40;;
26269;SDS011;15937;50.612;6.656;2022-07-24T17:24:06;9.77;;;6.25;;
26269;SDS011;15937;50.612;6.656;2022-07-24T17:28:10;10.60;;;6.47;;
26269;SDS011;15937;50.612;6.656;2022-07-24T17:32:13;6.93;;;4.05;;
26269;SDS011;15937;50.612;6.656;2022-07-24T17:36:16;5.03;;;3.67;;
26269;SDS011;15937;50.612;6.656;2022-07-24T17:40:18;9.95;;;5.53;;
26269;SDS011;15937;50.612;6.656;2022-07-24T17:44:21;12.00;;;4.57;;
26269;SDS011;15937;50.612;6.656;2022-07-24T17:48:23;4.50;;;3.10;;
26269;SDS011;15937;50.612;6.656;2022-07-24T17:52:25;8.18;;;3.55;;
26269;SDS011;15937;50.612;6.656;2022-07-24T17:56:30;7.28;;;4.97;;
26269;SDS011;15937;50.612;6.656;2022-07-24T18:00:32;15.60;;;8.05;;
26269;SDS011;15937;50.612;6.656;2022-07-24T18:04:33;8.88;;;4.78;;
26269;SDS011;15937;50.612;6.656;2022-07-24T18:08:36;11.43;;;6.05;;
26269;SDS011;15937;50.612;6.656;2022-07-24T18:12:38;9.23;;;3.80;;
26269;SDS011;15937;50.612;6.656;2022-07-24T18:16:40;7.63;;;4.47;;
26269;SDS011;15937;50.612;6.656;2022-07-24T18:20:42;7.40;;;4.90;;
26269;SDS011;15937;50.612;6.656;2022-07-24T18:24:44;8.13;;;5.03;;
26269;SDS011;15937;50.612;6.656;2022-07-24T18:28:46;15.20;;;5.78;;
26269;SDS011;15937;50.612;6.656;2022-07-24T18:32:48;10.35;;;5.43;;
26269;SDS011;15937;50.612;6.656;2022-07-24T18:36:50;7.13;;;4.07;;
26269;SDS011;15937;50.612;6.656;2022-07-24T18:40:52;10.45;;;5.93;;
26269;SDS011;15937;50.612;6.656;2022-07-24T18:44:53;19.27;;;11.18;;
26269;SDS011;15937;50.612;6.656;2022-07-24T18:48:55;18.85;;;11.93;;
26269;SDS011;15937;50.612;6.656;2022-07-24T18:52:57;6.57;;;4.03;;
26269;SDS011;15937;50.612;6.656;2022-07-24T18:56:59;18.58;;;8.20;;
26269;SDS011;15937;50.612;6.656;2022-07-24T19:01:01;12.70;;;6.35;;
26269;SDS011;15937;50.612;6.656;2022-07-24T19:05:04;17.23;;;10.35;;
26269;SDS011;15937;50.612;6.656;2022-07-24T19:09:07;10.90;;;5.93;;
26269;SDS011;15937;50.612;6.656;2022-07-24T19:13:10;11.35;;;5.97;;
26269;SDS011;15937;50.612;6.656;2022-07-24T19:17:19;10.27;;;6.22;;
26269;SDS011;15937;50.612;6.656;2022-07-24T19:21:21;11.50;;;5.78;;
26269;SDS011;15937;50.612;6.656;2022-07-24T19:25:23;11.43;;;5.90;;
26269;SDS011;15937;50.612;6.656;2022-07-24T19:33:26;7.88;;;5.20;;
26269;SDS011;15937;50.612;6.656;2022-07-24T19:37:29;13.38;;;7.55;;
26269;SDS011;15937;50.612;6.656;2022-07-24T19:41:31;6.65;;;4.82;;
26269;SDS011;15937;50.612;6.656;2022-07-24T19:45:33;7.78;;;4.93;;
26269;SDS011;15937;50.612;6.656;2022-07-24T19:49:35;7.00;;;4.28;;
26269;SDS011;15937;50.612;6.656;2022-07-24T19:53:37;7.43;;;4.50;;
26269;SDS011;15937;50.612;6.656;2022-07-24T20:01:41;11.02;;;5.43;;
26269;SDS011;15937;50.612;6.656;2022-07-24T20:09:45;14.25;;;5.38;;
26269;SDS011;15937;50.612;6.656;2022-07-24T20:13:47;8.70;;;5.05;;
26269;SDS011;15937;50.612;6.656;2022-07-24T20:17:49;10.60;;;5.40;;
26269;SDS011;15937;50.612;6.656;2022-07-24T20:21:51;6.85;;;5.03;;
26269;SDS011;15937;50.612;6.656;2022-07-24T20:25:53;15.98;;;9.40;;
26269;SDS011;15937;50.612;6.656;2022-07-24T20:30:02;20.63;;;10.45;;
26269;SDS011;15937;50.612;6.656;2022-07-24T20:34:05;11.27;;;6.65;;
26269;SDS011;15937;50.612;6.656;2022-07-24T20:38:07;9.60;;;6.07;;
26269;SDS011;15937;50.612;6.656;2022-07-24T20:42:09;9.38;;;6.18;;
26269;SDS011;15937;50.612;6.656;2022-07-24T20:46:11;6.13;;;4.82;;
26269;SDS011;15937;50.612;6.656;2022-07-24T20:50:13;8.68;;;5.22;;
26269;SDS011;15937;50.612;6.656;2022-07-24T20:54:15;18.65;;;5.97;;
26269;SDS011;15937;50.612;6.656;2022-07-24T20:58:17;9.65;;;6.05;;
26269;SDS011;15937;50.612;6.656;2022-07-24T21:02:19;16.92;;;7.68;;
26269;SDS011;15937;50.612;6.656;2022-07-24T21:06:21;12.27;;;6.70;;
26269;SDS011;15937;50.612;6.656;2022-07-24T21:10:23;7.88;;;5.57;;
26269;SDS011;15937;50.612;6.656;2022-07-24T21:14:25;8.65;;;5.13;;
26269;SDS011;15937;50.612;6.656;2022-07-24T21:18:27;9.77;;;4.57;;
26269;SDS011;15937;50.612;6.656;2022-07-24T21:22:28;7.47;;;4.70;;
26269;SDS011;15937;50.612;6.656;2022-07-24T21:26:30;14.93;;;6.60;;
26269;SDS011;15937;50.612;6.656;2022-07-24T21:30:32;7.28;;;5.13;;
26269;SDS011;15937;50.612;6.656;2022-07-24T21:34:36;6.43;;;4.13;;
26269;SDS011;15937;50.612;6.656;2022-07-24T21:38:38;8.18;;;4.78;;
26269;SDS011;15937;50.612;6.656;2022-07-24T21:42:40;10.57;;;5.03;;
26269;SDS011;15937;50.612;6.656;2022-07-24T21:46:42;9.52;;;5.50;;
26269;SDS011;15937;50.612;6.656;2022-07-24T21:50:44;8.02;;;5.22;;
26269;SDS011;15937;50.612;6.656;2022-07-24T21:54:45;8.98;;;5.88;;
26269;SDS011;15937;50.612;6.656;2022-07-24T21:58:47;8.70;;;5.75;;
26269;SDS011;15937;50.612;6.656;2022-07-24T22:02:49;13.68;;;5.93;;
26269;SDS011;15937;50.612;6.656;2022-07-24T22:06:55;9.05;;;5.38;;
26269;SDS011;15937;50.612;6.656;2022-07-24T22:10:57;11.50;;;5.35;;
26269;SDS011;15937;50.612;6.656;2022-07-24T22:14:59;10.68;;;6.55;;
26269;SDS011;15937;50.612;6.656;2022-07-24T22:19:01;9.60;;;5.97;;
26269;SDS011;15937;50.612;6.656;2022-07-24T22:23:03;10.38;;;6.10;;
26269;SDS011;15937;50.612;6.656;2022-07-24T22:27:04;6.13;;;5.07;;
26269;SDS011;15937;50.612;6.656;2022-07-24T22:31:10;9.38;;;5.00;;
26269;SDS011;15937;50.612;6.656;2022-07-24T22:35:12;9.80;;;5.93;;
26269;SDS011;15937;50.612;6.656;2022-07-24T22:39:14;10.23;;;5.72;;
26269;SDS011;15937;50.612;6.656;2022-07-24T22:43:19;11.27;;;5.78;;
26269;SDS011;15937;50.612;6.656;2022-07-24T22:47:24;7.95;;;5.50;;
26269;SDS011;15937;50.612;6.656;2022-07-24T22:51:26;16.92;;;5.35;;
26269;SDS011;15937;50.612;6.656;2022-07-24T22:59:30;7.85;;;5.65;;
26269;SDS011;15937;50.612;6.656;2022-07-24T23:07:34;8.10;;;5.68;;
26269;SDS011;15937;50.612;6.656;2022-07-24T23:11:36;9.07;;;5.50;;
26269;SDS011;15937;50.612;6.656;2022-07-24T23:15:38;7.70;;;5.20;;
26269;SDS011;15937;50.612;6.656;2022-07-24T23:19:40;11.45;;;5.93;;
26269;SDS011;15937;50.612;6.656;2022-07-24T23:23:42;9.13;;;5.37;;
26269;SDS011;15937;50.612;6.656;2022-07-24T23:27:44;11.63;;;5.40;;
26269;SDS011;15937;50.612;6.656;2022-07-24T23:31:46;9.70;;;5.93;;
26269;SDS011;15937;50.612;6.656;2022-07-24T23:35:48;9.25;;;5.63;;
26269;SDS011;15937;50.612;6.656;2022-07-24T23:39:49;11.57;;;6.10;;
26269;SDS011;15937;50.612;6.656;2022-07-24T23:43:52;10.10;;;5.45;;
26269;SDS011;15937;50.612;6.656;2022-07-24T23:47:53;11.43;;;5.60;;
26269;SDS011;15937;50.612;6.656;2022-07-24T23:51:55;12.90;;;5.23;;
26269;SDS011;15937;50.612;6.656;2022-07-24T23:55:57;9.80;;;5.85;;
26269;SDS011;15937;50.612;6.656;2022-07-24T23:59:59;10.90;;;5.17;;
